createdAt,value
2018-07-23T00:02:18.358Z,19.50
2018-07-23T00:04:46.631Z,19.50
2018-07-23T00:07:14.878Z,19.40
2018-07-23T00:09:43.299Z,19.40
2018-07-23T00:12:11.522Z,19.40
2018-07-23T00:17:07.778Z,19.40
2018-07-23T00:19:36.192Z,19.40
2018-07-23T00:22:04.634Z,19.40
2018-07-23T00:24:32.854Z,19.30
2018-07-23T00:27:01.084Z,19.30
2018-07-23T00:29:29.305Z,19.30
2018-07-23T00:31:57.541Z,19.30
2018-07-23T00:34:25.847Z,19.30
2018-07-23T00:36:54.094Z,19.30
2018-07-23T00:39:22.348Z,19.40
2018-07-23T00:41:50.643Z,19.40
2018-07-23T00:44:19.030Z,19.30
2018-07-23T00:46:47.353Z,19.30
2018-07-23T00:49:15.599Z,19.30
2018-07-23T00:51:43.851Z,19.30
2018-07-23T00:54:12.118Z,19.30
2018-07-23T00:56:40.348Z,19.40
2018-07-23T00:59:09.146Z,19.30
2018-07-23T01:01:37.360Z,19.40
2018-07-23T01:04:05.615Z,19.40
2018-07-23T01:06:33.806Z,19.40
2018-07-23T01:09:02.011Z,19.50
2018-07-23T01:11:30.258Z,19.50
2018-07-23T01:14:05.385Z,19.50
2018-07-23T01:16:33.659Z,19.50
2018-07-23T01:19:01.894Z,19.40
2018-07-23T01:21:30.082Z,19.30
2018-07-23T01:23:58.324Z,19.40
2018-07-23T01:26:26.545Z,19.40
2018-07-23T01:28:54.825Z,19.50
2018-07-23T01:31:23.030Z,19.40
2018-07-23T01:33:51.301Z,19.50
2018-07-23T01:36:19.535Z,19.50
2018-07-23T01:38:47.786Z,19.50
2018-07-23T01:41:16.025Z,19.50
2018-07-23T01:43:44.231Z,19.50
2018-07-23T01:46:12.632Z,19.50
2018-07-23T01:48:40.886Z,19.40
2018-07-23T01:51:09.103Z,19.40
2018-07-23T01:53:37.325Z,19.50
2018-07-23T01:56:05.861Z,19.50
2018-07-23T01:58:34.089Z,19.50
2018-07-23T02:01:08.809Z,19.40
2018-07-23T02:03:37.978Z,19.40
2018-07-23T02:06:06.303Z,19.40
2018-07-23T02:08:34.615Z,19.40
2018-07-23T02:11:02.912Z,19.50
2018-07-23T02:13:31.126Z,19.50
2018-07-23T02:15:59.342Z,19.50
2018-07-23T02:18:27.531Z,19.40
2018-07-23T02:20:55.746Z,19.40
2018-07-23T02:23:24.065Z,19.40
2018-07-23T02:25:52.359Z,19.50
2018-07-23T02:28:20.564Z,19.50
2018-07-23T02:30:48.802Z,19.50
2018-07-23T02:33:17.026Z,19.40
2018-07-23T02:35:45.220Z,19.40
2018-07-23T02:38:13.466Z,19.40
2018-07-23T02:40:41.682Z,19.40
2018-07-23T02:43:09.968Z,19.40
2018-07-23T02:45:38.188Z,19.40
2018-07-23T02:48:06.419Z,19.40
2018-07-23T02:50:34.610Z,19.30
2018-07-23T02:53:02.869Z,19.30
2018-07-23T02:55:31.107Z,19.30
2018-07-23T02:57:59.326Z,19.30
2018-07-23T03:00:27.536Z,19.20
2018-07-23T03:02:55.786Z,19.20
2018-07-23T03:05:24.042Z,19.20
2018-07-23T03:07:52.288Z,19.30
2018-07-23T03:10:20.475Z,19.30
2018-07-23T03:12:48.790Z,19.30
2018-07-23T03:15:16.990Z,19.30
2018-07-23T03:17:45.580Z,19.30
2018-07-23T03:20:13.771Z,19.30
2018-07-23T03:22:42.942Z,19.20
2018-07-23T03:25:11.220Z,19.30
2018-07-23T03:27:39.454Z,19.40
2018-07-23T03:30:07.633Z,19.30
2018-07-23T03:32:36.098Z,19.30
2018-07-23T03:35:04.373Z,19.30
2018-07-23T03:37:32.611Z,19.30
2018-07-23T03:40:00.838Z,19.30
2018-07-23T03:42:29.201Z,19.30
2018-07-23T03:44:57.430Z,19.20
2018-07-23T03:47:25.718Z,19.20
2018-07-23T03:49:53.979Z,19.30
2018-07-23T03:52:22.213Z,19.30
2018-07-23T03:54:50.461Z,19.30
2018-07-23T03:57:18.907Z,19.40
2018-07-23T03:59:47.190Z,19.30
2018-07-23T04:02:15.471Z,19.40
2018-07-23T04:04:43.686Z,19.30
2018-07-23T04:07:11.890Z,19.30
2018-07-23T04:09:40.112Z,19.30
2018-07-23T04:12:08.362Z,19.30
2018-07-23T04:14:36.665Z,19.30
2018-07-23T04:17:05.256Z,19.40
2018-07-23T04:19:34.584Z,19.40
2018-07-23T04:22:02.795Z,19.40
2018-07-23T04:24:31.033Z,19.40
2018-07-23T04:26:59.252Z,19.40
2018-07-23T04:29:27.454Z,19.50
2018-07-23T04:31:55.654Z,19.40
2018-07-23T04:34:24.125Z,19.40
2018-07-23T04:36:52.469Z,19.40
2018-07-23T04:39:20.702Z,19.40
2018-07-23T04:41:48.986Z,19.30
2018-07-23T04:44:17.255Z,19.40
2018-07-23T04:46:45.482Z,19.40
2018-07-23T04:49:14.122Z,19.30
2018-07-23T04:51:42.527Z,19.40
2018-07-23T04:54:10.788Z,19.40
2018-07-23T04:59:07.722Z,19.50
2018-07-23T05:01:36.908Z,19.50
2018-07-23T05:04:05.346Z,19.60
2018-07-23T05:06:33.636Z,19.60
2018-07-23T05:09:01.907Z,19.50
2018-07-23T05:11:30.143Z,19.50
2018-07-23T05:14:01.814Z,19.40
2018-07-23T05:16:30.092Z,19.40
2018-07-23T05:18:58.305Z,19.50
2018-07-23T05:21:27.374Z,19.50
2018-07-23T05:23:57.334Z,19.60
2018-07-23T05:26:25.584Z,19.60
2018-07-23T05:28:53.930Z,19.60
2018-07-23T05:31:22.125Z,19.60
2018-07-23T05:33:50.398Z,19.60
2018-07-23T05:36:18.757Z,19.60
2018-07-23T05:38:47.054Z,19.70
2018-07-23T05:41:15.310Z,19.80
2018-07-23T05:43:43.541Z,19.80
2018-07-23T05:46:11.783Z,19.80
2018-07-23T05:48:41.145Z,19.80
2018-07-23T05:51:09.459Z,19.80
2018-07-23T05:53:37.722Z,19.90
2018-07-23T05:56:05.967Z,19.90
2018-07-23T05:58:34.193Z,19.90
2018-07-23T06:01:03.128Z,19.90
2018-07-23T06:03:31.454Z,19.90
2018-07-23T06:05:59.674Z,19.90
2018-07-23T06:08:27.898Z,20.00
2018-07-23T06:10:56.165Z,20.00
2018-07-23T06:13:24.428Z,20.00
2018-07-23T06:15:52.675Z,20.00
2018-07-23T06:18:20.898Z,20.00
2018-07-23T06:20:49.326Z,20.00
2018-07-23T06:23:17.568Z,20.10
2018-07-23T06:25:45.805Z,20.20
2018-07-23T06:28:14.113Z,20.20
2018-07-23T06:30:42.375Z,20.30
2018-07-23T06:33:10.754Z,20.50
2018-07-23T06:35:39.043Z,20.80
2018-07-23T06:38:07.262Z,21.10
2018-07-23T06:40:35.494Z,21.40
2018-07-23T06:43:03.709Z,21.60
2018-07-23T06:45:31.925Z,21.70
2018-07-23T06:48:00.149Z,21.80
2018-07-23T06:50:28.338Z,22.00
2018-07-23T06:52:56.598Z,22.10
2018-07-23T06:55:24.796Z,22.20
2018-07-23T06:57:53.022Z,22.20
2018-07-23T07:00:21.236Z,22.20
2018-07-23T07:02:49.448Z,22.00
2018-07-23T07:05:17.722Z,22.00
2018-07-23T07:07:46.005Z,22.10
2018-07-23T07:10:14.223Z,22.10
2018-07-23T07:12:42.450Z,22.20
2018-07-23T07:15:10.689Z,22.30
2018-07-23T07:17:38.982Z,22.40
2018-07-23T07:20:07.350Z,22.40
2018-07-23T07:22:35.622Z,22.30
2018-07-23T07:25:03.943Z,22.30
2018-07-23T07:27:32.180Z,22.30
2018-07-23T07:30:00.414Z,22.40
2018-07-23T07:32:29.241Z,22.30
2018-07-23T07:34:57.474Z,22.30
2018-07-23T07:37:25.783Z,22.30
2018-07-23T07:39:53.975Z,22.30
2018-07-23T07:42:22.246Z,22.40
2018-07-23T07:44:50.809Z,22.50
2018-07-23T07:47:19.051Z,22.60
2018-07-23T07:49:47.285Z,22.80
2018-07-23T07:52:16.094Z,22.70
2018-07-23T07:54:44.454Z,22.70
2018-07-23T07:57:12.696Z,22.60
2018-07-23T07:59:40.900Z,22.60
2018-07-23T08:02:09.162Z,22.70
2018-07-23T08:04:37.653Z,22.80
2018-07-23T08:07:05.914Z,22.80
2018-07-23T08:09:34.072Z,22.90
2018-07-23T08:12:02.285Z,23.10
2018-07-23T08:14:30.625Z,23.30
2018-07-23T08:16:58.862Z,23.40
2018-07-23T08:19:27.236Z,23.50
2018-07-23T08:21:55.476Z,23.60
2018-07-23T08:24:24.370Z,23.60
2018-07-23T08:26:53.240Z,23.70
2018-07-23T08:29:21.495Z,23.80
2018-07-23T08:31:49.822Z,24.00
2018-07-23T08:34:17.984Z,24.30
2018-07-23T08:36:46.195Z,24.30
2018-07-23T08:39:14.423Z,24.40
2018-07-23T08:41:42.648Z,24.30
2018-07-23T08:44:10.882Z,24.30
2018-07-23T08:46:39.085Z,24.20
2018-07-23T08:49:07.364Z,24.20
2018-07-23T08:51:35.637Z,24.00
2018-07-23T08:54:03.860Z,23.90
2018-07-23T08:56:32.140Z,24.00
2018-07-23T08:59:00.495Z,24.00
2018-07-23T09:01:28.752Z,24.10
2018-07-23T09:03:56.986Z,24.20
2018-07-23T09:06:25.243Z,24.30
2018-07-23T09:08:53.466Z,24.30
2018-07-23T09:11:21.794Z,24.20
2018-07-23T09:13:50.021Z,24.30
2018-07-23T09:16:18.264Z,24.50
2018-07-23T09:18:46.510Z,24.60
2018-07-23T09:21:14.747Z,24.60
2018-07-23T09:23:43.145Z,24.60
2018-07-23T09:26:11.503Z,24.40
2018-07-23T09:28:39.785Z,24.30
2018-07-23T09:31:08.230Z,24.30
2018-07-23T09:33:36.425Z,24.30
2018-07-23T09:36:04.754Z,24.30
2018-07-23T09:38:33.058Z,24.30
2018-07-23T09:41:01.271Z,24.10
2018-07-23T09:43:29.506Z,24.20
2018-07-23T09:45:57.983Z,24.30
2018-07-23T09:48:26.223Z,24.50
2018-07-23T09:50:54.469Z,24.60
2018-07-23T09:53:22.702Z,24.50
2018-07-23T09:55:50.913Z,24.50
2018-07-23T09:58:19.203Z,24.60
2018-07-23T10:00:52.714Z,24.80
2018-07-23T10:03:20.982Z,24.80
2018-07-23T10:05:49.202Z,24.50
2018-07-23T10:08:17.467Z,24.60
2018-07-23T10:10:45.823Z,24.70
2018-07-23T10:13:14.044Z,24.90
2018-07-23T10:15:42.316Z,25.00
2018-07-23T10:18:10.516Z,25.10
2018-07-23T10:20:38.771Z,25.30
2018-07-23T10:23:07.146Z,25.50
2018-07-23T10:25:35.353Z,25.70
2018-07-23T10:28:03.526Z,25.80
2018-07-23T10:30:31.728Z,26.00
2018-07-23T10:32:59.946Z,26.10
2018-07-23T10:35:28.301Z,26.10
2018-07-23T10:37:56.702Z,26.20
2018-07-23T10:40:25.002Z,26.10
2018-07-23T10:42:53.363Z,26.20
2018-07-23T10:45:21.584Z,26.50
2018-07-23T10:47:49.802Z,27.00
2018-07-23T10:50:18.105Z,27.20
2018-07-23T10:52:46.435Z,27.20
2018-07-23T10:55:14.653Z,27.60
2018-07-23T10:57:43.835Z,27.50
2018-07-23T11:00:12.119Z,27.70
2018-07-23T11:02:40.413Z,27.40
2018-07-23T11:05:09.980Z,26.60
2018-07-23T11:07:38.207Z,26.60
2018-07-23T11:10:07.369Z,26.40
2018-07-23T11:12:36.629Z,26.00
2018-07-23T11:15:06.294Z,25.70
2018-07-23T11:17:34.943Z,25.70
2018-07-23T11:20:03.633Z,25.80
2018-07-23T11:22:31.861Z,25.70
2018-07-23T11:27:28.810Z,25.50
2018-07-23T11:29:57.011Z,25.40
2018-07-23T11:32:25.262Z,25.20
2018-07-23T11:34:53.502Z,25.00
2018-07-23T11:37:21.722Z,25.00
2018-07-23T11:39:50.923Z,25.20
2018-07-23T11:42:19.153Z,25.30
2018-07-23T11:44:47.538Z,25.40
2018-07-23T11:47:17.103Z,25.30
2018-07-23T11:49:45.329Z,25.30
2018-07-23T11:52:14.363Z,25.40
2018-07-23T11:54:41.886Z,25.40
2018-07-23T11:57:10.114Z,25.40
2018-07-23T11:59:38.307Z,25.40
2018-07-23T12:02:06.870Z,25.30
2018-07-23T12:04:35.767Z,25.50
2018-07-23T12:07:03.998Z,25.60
2018-07-23T12:09:32.206Z,25.70
2018-07-23T12:12:00.457Z,25.40
2018-07-23T12:14:28.761Z,25.30
2018-07-23T12:16:56.982Z,25.40
2018-07-23T12:19:25.209Z,25.30
2018-07-23T12:21:53.419Z,25.40
2018-07-23T12:24:21.593Z,25.60
2018-07-23T12:26:49.789Z,25.50
2018-07-23T12:29:17.958Z,25.60
2018-07-23T12:31:46.142Z,25.60
2018-07-23T12:34:14.362Z,25.60
2018-07-23T12:36:42.606Z,25.70
2018-07-23T12:39:12.588Z,25.70
2018-07-23T12:41:41.484Z,25.90
2018-07-23T12:44:10.043Z,26.10
2018-07-23T12:46:38.398Z,26.10
2018-07-23T12:49:06.755Z,26.00
2018-07-23T12:51:34.974Z,25.90
2018-07-23T12:54:03.597Z,25.60
2018-07-23T12:56:31.888Z,25.60
2018-07-23T12:59:00.206Z,25.60
2018-07-23T13:01:28.426Z,25.70
2018-07-23T13:03:56.802Z,25.80
2018-07-23T13:06:25.920Z,25.90
2018-07-23T13:08:54.679Z,25.90
2018-07-23T13:11:23.022Z,25.90
2018-07-23T13:13:51.222Z,25.90
2018-07-23T13:16:19.419Z,25.90
2018-07-23T13:18:47.647Z,25.90
2018-07-23T13:21:15.883Z,25.90
2018-07-23T13:23:44.150Z,25.80
2018-07-23T13:26:18.910Z,25.70
2018-07-23T13:28:47.723Z,25.80
2018-07-23T13:31:16.078Z,25.90
2018-07-23T13:33:44.302Z,25.90
2018-07-23T13:36:12.569Z,26.00
2018-07-23T13:38:40.927Z,25.90
2018-07-23T13:41:09.235Z,25.60
2018-07-23T13:43:37.572Z,25.60
2018-07-23T13:46:05.832Z,25.50
2018-07-23T13:48:34.163Z,25.40
2018-07-23T13:51:02.423Z,25.10
2018-07-23T13:53:30.730Z,24.90
2018-07-23T13:55:59.033Z,25.00
2018-07-23T13:58:27.634Z,25.10
2018-07-23T14:00:55.858Z,25.30
2018-07-23T14:03:24.145Z,25.30
2018-07-23T14:05:52.456Z,25.20
2018-07-23T14:08:20.749Z,25.20
2018-07-23T14:10:49.014Z,25.20
2018-07-23T14:13:17.707Z,25.30
2018-07-23T14:15:45.971Z,25.40
2018-07-23T14:18:14.276Z,25.60
2018-07-23T14:20:42.519Z,25.60
2018-07-23T14:23:12.100Z,25.70
2018-07-23T14:25:40.354Z,25.90
2018-07-23T14:28:08.723Z,25.80
2018-07-23T14:30:36.977Z,25.90
2018-07-23T14:33:05.279Z,26.00
2018-07-23T14:35:33.451Z,26.10
2018-07-23T14:40:29.806Z,25.90
2018-07-23T14:42:58.064Z,25.60
2018-07-23T14:45:26.294Z,25.50
2018-07-23T14:47:54.658Z,25.60
2018-07-23T14:50:22.855Z,25.70
2018-07-23T14:52:51.064Z,25.70
2018-07-23T14:55:19.342Z,25.80
2018-07-23T14:57:48.526Z,25.90
2018-07-23T15:00:16.732Z,26.00
2018-07-23T15:02:45.020Z,25.80
2018-07-23T15:05:13.208Z,25.70
2018-07-23T15:07:41.442Z,25.70
2018-07-23T15:10:09.667Z,25.80
2018-07-23T15:12:37.916Z,25.70
2018-07-23T15:15:06.141Z,25.70
2018-07-23T15:17:36.002Z,25.60
2018-07-23T15:20:04.390Z,25.60
2018-07-23T15:22:32.608Z,25.70
2018-07-23T15:25:00.862Z,25.90
2018-07-23T15:27:29.188Z,26.00
2018-07-23T15:29:57.382Z,26.00
2018-07-23T15:32:25.643Z,26.10
2018-07-23T15:37:21.902Z,26.20
2018-07-23T15:39:50.126Z,26.10
2018-07-23T15:42:18.645Z,26.10
2018-07-23T15:44:47.300Z,26.10
2018-07-23T15:47:15.311Z,26.10
2018-07-23T15:49:43.542Z,26.20
2018-07-23T15:52:11.764Z,26.20
2018-07-23T15:54:40.055Z,26.30
2018-07-23T15:57:08.424Z,26.30
2018-07-23T15:59:36.646Z,26.30
2018-07-23T16:02:04.898Z,26.30
2018-07-23T16:04:33.096Z,26.40
2018-07-23T16:07:01.518Z,26.50
2018-07-23T16:09:30.608Z,26.60
2018-07-23T16:11:58.831Z,26.60
2018-07-23T16:14:27.092Z,26.60
2018-07-23T16:16:55.290Z,26.60
2018-07-23T16:19:24.672Z,26.60
2018-07-23T16:21:52.978Z,26.70
2018-07-23T16:24:21.224Z,26.70
2018-07-23T16:26:50.983Z,26.60
2018-07-23T16:29:19.192Z,26.50
2018-07-23T16:31:47.384Z,26.50
2018-07-23T16:34:15.570Z,26.40
2018-07-23T16:36:43.806Z,26.40
2018-07-23T16:39:13.318Z,26.40
2018-07-23T16:41:42.485Z,26.40
2018-07-23T16:44:11.798Z,26.30
2018-07-23T16:46:40.012Z,26.30
2018-07-23T16:49:08.275Z,26.30
2018-07-23T16:51:36.562Z,26.30
2018-07-23T16:54:04.809Z,26.20
2018-07-23T16:56:33.044Z,26.20
2018-07-23T16:59:01.747Z,26.20
2018-07-23T17:01:30.033Z,26.20
2018-07-23T17:03:59.052Z,26.20
2018-07-23T17:06:27.298Z,26.20
2018-07-23T17:08:55.661Z,26.10
2018-07-23T17:11:23.883Z,26.10
2018-07-23T17:13:52.153Z,26.00
2018-07-23T17:16:20.399Z,26.00
2018-07-23T17:18:48.683Z,25.90
2018-07-23T17:21:16.951Z,25.90
2018-07-23T17:23:45.195Z,25.90
2018-07-23T17:28:41.486Z,25.70
2018-07-23T17:31:09.751Z,25.70
2018-07-23T17:33:37.970Z,25.70
2018-07-23T17:36:06.194Z,25.60
2018-07-23T17:38:34.455Z,25.60
2018-07-23T17:41:02.676Z,25.60
2018-07-23T17:43:30.972Z,25.50
2018-07-23T17:45:59.215Z,25.60
2018-07-23T17:48:27.479Z,25.50
2018-07-23T17:50:55.740Z,25.50
2018-07-23T17:53:23.929Z,25.40
2018-07-23T17:58:20.134Z,25.40
2018-07-23T18:00:48.397Z,25.40
2018-07-23T18:03:16.826Z,25.30
2018-07-23T18:05:45.294Z,25.30
2018-07-23T18:08:13.717Z,25.20
2018-07-23T18:10:41.981Z,25.20
2018-07-23T18:13:11.310Z,25.20
2018-07-23T18:15:39.537Z,25.20
2018-07-23T18:18:07.787Z,25.10
2018-07-23T18:20:36.086Z,25.00
2018-07-23T18:23:04.357Z,25.00
2018-07-23T18:25:32.922Z,25.00
2018-07-23T18:28:01.227Z,25.00
2018-07-23T18:30:29.584Z,25.00
2018-07-23T18:32:57.790Z,24.90
2018-07-23T18:35:26.063Z,24.90
2018-07-23T18:37:54.897Z,24.90
2018-07-23T18:40:23.174Z,24.90
2018-07-23T18:42:51.394Z,24.90
2018-07-23T18:45:19.666Z,24.80
2018-07-23T18:47:48.075Z,24.80
2018-07-23T18:50:16.231Z,24.80
2018-07-23T18:52:44.506Z,24.70
2018-07-23T18:55:12.769Z,24.80
2018-07-23T18:57:41.074Z,24.70
2018-07-23T19:00:09.317Z,24.70
2018-07-23T19:02:37.669Z,24.70
2018-07-23T19:05:06.349Z,24.70
2018-07-23T19:07:34.593Z,24.60
2018-07-23T19:10:03.055Z,24.60
2018-07-23T19:12:31.334Z,24.60
2018-07-23T19:14:59.622Z,24.50
2018-07-23T19:17:28.179Z,24.50
2018-07-23T19:19:56.462Z,24.50
2018-07-23T19:22:24.816Z,24.40
2018-07-23T19:24:53.068Z,24.20
2018-07-23T19:27:21.342Z,24.10
2018-07-23T19:29:49.665Z,24.00
2018-07-23T19:32:17.957Z,23.90
2018-07-23T19:34:46.301Z,23.90
2018-07-23T19:37:14.567Z,23.90
2018-07-23T19:39:42.899Z,23.90
2018-07-23T19:42:11.419Z,23.80
2018-07-23T19:44:39.639Z,23.80
2018-07-23T19:47:08.022Z,23.70
2018-07-23T19:49:36.408Z,23.70
2018-07-23T19:52:04.773Z,23.70
2018-07-23T19:54:33.034Z,23.70
2018-07-23T19:57:01.314Z,23.70
2018-07-23T19:59:29.651Z,23.80
2018-07-23T20:01:58.059Z,23.70
2018-07-23T20:04:26.362Z,23.70
2018-07-23T20:06:54.736Z,23.60
2018-07-23T20:09:23.022Z,23.60
2018-07-23T20:11:51.278Z,23.50
2018-07-23T20:14:20.166Z,23.50
2018-07-23T20:16:48.420Z,23.30
2018-07-23T20:19:16.974Z,23.20
2018-07-23T20:21:45.214Z,23.00
2018-07-23T20:24:13.989Z,22.90
2018-07-23T20:26:42.779Z,22.80
2018-07-23T20:29:11.050Z,22.80
2018-07-23T20:31:39.325Z,22.90
2018-07-23T20:34:07.578Z,22.80
2018-07-23T20:36:35.795Z,22.80
2018-07-23T20:39:05.709Z,22.80
2018-07-23T20:41:33.966Z,22.90
2018-07-23T20:44:02.243Z,22.90
2018-07-23T20:46:30.518Z,22.90
2018-07-23T20:48:58.841Z,22.90
2018-07-23T20:51:27.182Z,23.00
2018-07-23T20:53:55.447Z,23.00
2018-07-23T20:56:23.714Z,23.00
2018-07-23T20:58:52.108Z,22.90
2018-07-23T21:01:20.376Z,22.90
2018-07-23T21:03:48.685Z,22.80
2018-07-23T21:06:16.897Z,22.80
2018-07-23T21:08:45.206Z,22.80
2018-07-23T21:11:13.458Z,22.90
2018-07-23T21:16:10.863Z,22.90
2018-07-23T21:18:39.256Z,22.90
2018-07-23T21:21:07.478Z,22.90
2018-07-23T21:23:35.754Z,22.90
2018-07-23T21:26:03.974Z,22.90
2018-07-23T21:28:32.250Z,22.90
2018-07-23T21:31:00.527Z,22.90
2018-07-23T21:33:28.811Z,22.90
2018-07-23T21:35:57.013Z,22.90
2018-07-23T21:38:25.652Z,22.90
2018-07-23T21:40:53.866Z,22.80
2018-07-23T21:43:22.141Z,22.80
2018-07-23T21:45:50.423Z,22.80
2018-07-23T21:48:18.640Z,22.80
2018-07-23T21:50:46.984Z,22.70
2018-07-23T21:53:15.271Z,22.70
2018-07-23T21:55:43.526Z,22.60
2018-07-23T21:58:11.850Z,22.50
2018-07-23T22:00:42.416Z,22.50
2018-07-23T22:03:11.556Z,22.60
2018-07-23T22:05:40.747Z,22.50
2018-07-23T22:08:09.054Z,22.60
2018-07-23T22:10:37.249Z,22.50
2018-07-23T22:13:05.575Z,22.30
2018-07-23T22:18:01.807Z,21.70
2018-07-23T22:20:30.019Z,21.90
2018-07-23T22:22:58.461Z,21.90
2018-07-23T22:25:26.692Z,22.00
2018-07-23T22:27:54.950Z,22.00
2018-07-23T22:30:23.200Z,21.90
2018-07-23T22:32:51.400Z,22.00
2018-07-23T22:35:19.601Z,22.10
2018-07-23T22:37:47.855Z,22.00
2018-07-23T22:40:16.176Z,22.00
2018-07-23T22:42:44.435Z,22.00
2018-07-23T22:45:12.683Z,21.90
2018-07-23T22:50:08.951Z,21.90
2018-07-23T22:52:37.251Z,22.00
2018-07-23T22:55:05.548Z,22.00
2018-07-23T22:57:33.804Z,22.10
2018-07-23T23:02:30.068Z,22.10
2018-07-23T23:04:58.302Z,22.10
2018-07-23T23:07:26.744Z,22.20
2018-07-23T23:09:55.002Z,22.20
2018-07-23T23:12:23.300Z,22.10
2018-07-23T23:14:51.529Z,22.10
2018-07-23T23:17:19.759Z,22.10
2018-07-23T23:19:47.979Z,22.00
2018-07-23T23:22:16.259Z,22.00
2018-07-23T23:24:44.617Z,22.00
2018-07-23T23:27:13.622Z,21.90
2018-07-23T23:29:41.874Z,21.80
2018-07-23T23:32:10.131Z,21.80
2018-07-23T23:34:38.376Z,21.80
2018-07-23T23:37:06.630Z,21.70
2018-07-23T23:39:34.900Z,21.70
2018-07-23T23:42:03.130Z,21.70
2018-07-23T23:44:31.359Z,21.70
2018-07-23T23:46:59.574Z,21.80
2018-07-23T23:49:27.905Z,21.80
2018-07-23T23:51:56.082Z,21.80
2018-07-23T23:54:24.317Z,21.70
2018-07-23T23:56:52.545Z,21.70
2018-07-23T23:59:20.772Z,21.60
